Terminal Aerodrome Forecast
Issued by NWS Miami, FL

Home | Current Version | Previous Version | Text Only | Print | Product List | Glossary On
Versions: 1 2 3 4 5 6 7 8 9 10 11 12 13 14 15 16 17 18 19 20 21 22 23 24 25
000
FTUS42 KMFL 172339
TAFPBI
TAF
KPBI 172339Z 1800/1824 07013G18KT P6SM VCSH SCT016 BKN025 BKN050
     FM180200 08011KT P6SM VCSH SCT025 BKN050 BKN250
     FM181400 13016KT P6SM VCSH SCT025 BKN040=

USA.gov is the U.S. government's official web portal to all federal, state and local government web resources and services.